Flight Track Log - Related Links

Times and Time Zones

All times are in EDT time to prevent confusion due to time zone crossing. See the CDG4609 flight status page for this flight to view local times or setup timezone preferences in your user account.

Time Position Orientation Groundspeed Altitude Reporting Facility
EDT Latitude Longitude Course Direction KTS MPH feet Rate Location/Type
Fri 11:58:00 PM 38.1256 108.9718 279° West  Level Estimated
Fri 11:59:00 PM 38.1573 108.6042 276° West  Level Estimated
Sat 12:00:00 AM 38.1678 108.4791 276° West  Level Estimated
Sat 12:01:00 AM 38.1781 108.3540 276° West  Level Estimated
Sat 12:02:00 AM 38.1884 108.2289 276° West  Level Estimated
Sat 12:03:00 AM 38.1984 108.1037 276° West  Level Estimated
Sat 12:04:00 AM 38.2084 107.9785 276° West  Level Estimated
Sat 12:05:00 AM 38.2182 107.8533 276° West  Level Estimated
Sat 12:06:00 AM 38.2279 107.7280 276° West  Level Estimated
Sat 12:07:00 AM 38.2375 107.6027 276° West  Level Estimated
Sat 12:08:00 AM 38.2469 107.4773 276° West  Level Estimated
Sat 12:09:00 AM 38.2562 107.3520 275° West  Level Estimated
Sat 12:10:00 AM 38.2654 107.2266 275° West  Level Estimated
Sat 12:11:00 AM 38.2744 107.1012 275° West  Level Estimated
Sat 12:12:00 AM 38.2833 106.9757 275° West  Level Estimated
Sat 12:13:00 AM 38.2920 106.8502 275° West  Level Estimated
Sat 12:14:00 AM 38.3007 106.7247 275° West  Level Estimated
Sat 12:15:00 AM 38.3092 106.5991 275° West  Level Estimated
Sat 12:16:00 AM 38.3175 106.4735 275° West  Level Estimated
Sat 12:17:00 AM 38.3228 106.3933 275° West  Level Estimated
Sat 12:18:00 AM 38.3228 106.3933 130° Southeast  Level Estimated
Sat 12:19:00 AM 38.3228 106.3933 130° Southeast  Level Estimated
Sat 12:20:00 AM 38.3228 106.3933 130° Southeast  Level Estimated
Sat 12:21:00 AM 38.3228 106.3933 130° Southeast  Level Estimated
Sat 12:22:00 AM 38.3228 106.3933 130° Southeast  Level Estimated
Sat 12:23:00 AM 38.3228 106.3933 130° Southeast  Level Estimated
Sat 12:24:00 AM 38.3228 106.3933 130° Southeast  Level Estimated
Sat 12:25:00 AM 38.3228 106.3933 130° Southeast  Level Estimated
Sat 12:26:00 AM 38.3228 106.3933 130° Southeast  Level Estimated
Sat 12:27:00 AM 38.3228 106.3933 130° Southeast  Level Estimated
Sat 12:28:00 AM 38.3228 106.3933 130° Southeast  Level Estimated
Sat 12:29:00 AM 38.3228 106.3933 130° Southeast  Level Estimated
Sat 12:30:00 AM 38.3228 106.3933 130° Southeast  Level Estimated
Sat 12:31:00 AM 38.3228 106.3933 130° Southeast  Level Estimated
Sat 12:32:00 AM 38.3228 106.3933 130° Southeast  Level Estimated
Sat 12:33:00 AM 38.3228 106.3933 130° Southeast  Level Estimated
Sat 12:34:00 AM 38.3228 106.3933 130° Southeast  Level Estimated
Sat 12:35:00 AM 38.3228 106.3933 130° Southeast  Level Estimated
Sat 12:36:00 AM 38.3228 106.3933 130° Southeast  Level Estimated
Sat 12:37:00 AM 38.3228 106.3933 130° Southeast  Level Estimated
Sat 12:38:00 AM 38.3228 106.3933 130° Southeast  Level Estimated
Sat 12:39:00 AM 38.3228 106.3933 130° Southeast  Level Estimated
Sat 12:40:00 AM 38.3228 106.3933 130° Southeast  Level Estimated
Sat 12:41:00 AM 38.3228 106.3933 130° Southeast  Level Estimated
Sat 12:42:00 AM 38.3228 106.3933 130° Southeast  Level Estimated
Sat 12:43:00 AM 38.3228 106.3933 130° Southeast  Level Estimated
Sat 12:44:00 AM 38.3228 106.3933 130° Southeast  Level Estimated
Sat 12:45:00 AM 38.3228 106.3933 130° Southeast  Level Estimated
Sat 12:46:00 AM 38.3228 106.3933 130° Southeast  Level Estimated
Sat 12:47:00 AM 38.3228 106.3933 130° Southeast  Level Estimated
Sat 12:48:00 AM 38.3228 106.3933 130° Southeast  Level Estimated
Sat 12:49:00 AM 38.3228 106.3933 130° Southeast  Level Estimated
Sat 12:50:00 AM 38.3228 106.3933 130° Southeast  Level Estimated
Sat 12:51:00 AM 38.3228 106.3933 130° Southeast  Level Estimated
Sat 12:52:00 AM 38.3228 106.3933 130° Southeast  Level Estimated
Sat 12:53:00 AM 38.3228 106.3933 130° Southeast  Level Estimated
Sat 12:54:00 AM 38.3228 106.3933 130° Southeast  Level Estimated

Login

Don't have an account? Register now (free) for customized features, flight alerts, and more!